Time;durP1;ratioP1;P1;durP2;ratioP2;P2;SDS_P1;SDS_P2;PMS_P1;PMS_P2;Temp;Humidity;BMP_temperature;BMP_pressure;BME280_temperature;BME280_humidity;BME280_pressure;Samples;Min_cycle;Max_cycle;Signal;HPM_P1;HPM_P2
2022/07/14 00:01:47;;;;;;;9.87;4.47;;;17.90;1.00;;;;;;4955754;29;20346;-63
2022/07/14 00:04:14;;;;;;;9.97;4.03;;;17.80;20.30;;;;;;4956213;28;20273;-62
2022/07/14 00:06:42;;;;;;;10.07;4.27;;;17.80;45.50;;;;;;4955359;29;20679;-62
2022/07/14 00:09:09;;;;;;;7.50;4.07;;;17.80;58.00;;;;;;4956119;29;20719;-62
2022/07/14 00:11:36;;;;;;;8.37;4.10;;;17.70;64.40;;;;;;4955604;29;20264;-62
2022/07/14 00:14:02;;;;;;;10.33;4.67;;;17.70;90.40;;;;;;4955829;29;20213;-62
2022/07/14 00:16:29;;;;;;;8.53;4.50;;;17.60;96.00;;;;;;4955385;29;20676;-62
2022/07/14 00:18:56;;;;;;;8.37;4.03;;;17.60;99.40;;;;;;4955413;29;20232;-63
2022/07/14 00:21:22;;;;;;;7.60;3.90;;;17.70;99.90;;;;;;4955592;29;20276;-62
2022/07/14 00:23:50;;;;;;;9.97;3.97;;;17.60;99.90;;;;;;4955216;29;20676;-62
2022/07/14 00:26:17;;;;;;;11.93;4.23;;;17.70;99.90;;;;;;4955089;29;20676;-62
2022/07/14 00:28:44;;;;;;;9.03;3.90;;;17.70;98.50;;;;;;4955165;29;20225;-62
2022/07/14 00:31:12;;;;;;;7.90;3.67;;;17.60;98.00;;;;;;4955197;29;20205;-62
2022/07/14 00:33:40;;;;;;;10.83;3.77;;;17.60;98.50;;;;;;4955803;29;20267;-62
2022/07/14 00:36:07;;;;;;;9.73;3.53;;;17.60;98.60;;;;;;4956146;29;20205;-62
2022/07/14 00:38:34;;;;;;;14.47;4.20;;;17.60;98.40;;;;;;4956228;29;20229;-62
2022/07/14 00:41:03;;;;;;;8.67;3.40;;;17.50;98.40;;;;;;4955448;29;20295;-63
2022/07/14 00:43:29;;;;;;;7.73;4.10;;;17.50;98.10;;;;;;4955022;29;20213;-62
2022/07/14 00:45:56;;;;;;;10.37;3.60;;;17.50;98.60;;;;;;4954940;29;20252;-62
2022/07/14 00:48:24;;;;;;;8.83;3.60;;;17.40;99.70;;;;;;4955060;29;20225;-62
2022/07/14 00:50:51;;;;;;;9.00;3.73;;;17.40;99.90;;;;;;4954807;29;20209;-62
2022/07/14 00:53:19;;;;;;;9.70;3.60;;;17.30;99.90;;;;;;4954850;29;20249;-62
2022/07/14 00:55:46;;;;;;;11.13;3.60;;;17.30;99.90;;;;;;4954886;29;20287;-62
2022/07/14 00:58:14;;;;;;;10.77;3.97;;;17.10;99.90;;;;;;4954766;29;20280;-62
2022/07/14 01:00:41;;;;;;;9.60;3.90;;;17.00;99.90;;;;;;4955997;29;20233;-62
2022/07/14 01:03:08;;;;;;;11.50;3.50;;;16.90;99.90;;;;;;4954634;29;20217;-62
2022/07/14 01:05:34;;;;;;;12.80;4.00;;;16.80;99.90;;;;;;4954967;29;20263;-62
2022/07/14 01:08:01;;;;;;;11.27;4.00;;;16.70;99.90;;;;;;4954366;29;20280;-62
2022/07/14 01:10:28;;;;;;;13.13;4.07;;;16.70;99.90;;;;;;4954593;29;20730;-62
2022/07/14 01:12:59;;;;;;;11.10;3.70;;;16.60;99.90;;;;;;4954126;29;20214;-63
2022/07/14 01:15:27;;;;;;;12.57;3.70;;;16.70;99.90;;;;;;4954215;28;20275;-62
2022/07/14 01:17:54;;;;;;;9.60;3.13;;;16.70;99.90;;;;;;4953979;29;20213;-62
2022/07/14 01:20:22;;;;;;;11.07;3.33;;;16.60;99.90;;;;;;4954342;29;20233;-62
2022/07/14 01:22:50;;;;;;;9.93;3.60;;;16.60;99.90;;;;;;4954655;29;20212;-62
2022/07/14 01:25:20;;;;;;;12.60;3.23;;;16.60;99.90;;;;;;4953978;29;20361;-62
2022/07/14 01:27:48;;;;;;;12.73;3.87;;;16.50;99.90;;;;;;4954446;28;20764;-62
2022/07/14 01:30:15;;;;;;;8.87;3.40;;;16.50;99.90;;;;;;4954253;29;20209;-62
2022/07/14 01:32:42;;;;;;;12.63;4.00;;;16.50;99.90;;;;;;4954260;29;20803;-62
2022/07/14 01:35:10;;;;;;;12.40;3.33;;;16.40;99.90;;;;;;4953967;29;20205;-62
2022/07/14 01:37:36;;;;;;;8.73;3.17;;;16.40;99.90;;;;;;4953991;29;20213;-62
2022/07/14 01:40:05;;;;;;;17.53;4.70;;;16.40;99.90;;;;;;4953617;29;20236;-62
2022/07/14 01:42:32;;;;;;;10.43;3.33;;;16.40;99.90;;;;;;4954107;28;20635;-62
2022/07/14 01:44:59;;;;;;;14.43;3.87;;;16.30;99.90;;;;;;4954268;29;20349;-62
2022/07/14 01:47:26;;;;;;;10.27;4.33;;;16.40;99.90;;;;;;4953738;29;20274;-62
2022/07/14 01:49:52;;;;;;;13.23;3.97;;;16.30;99.90;;;;;;4953961;29;20315;-62
2022/07/14 01:52:19;;;;;;;13.33;3.73;;;16.40;99.90;;;;;;4953595;29;20213;-62
2022/07/14 01:54:46;;;;;;;18.13;3.90;;;16.40;99.90;;;;;;4954122;29;20209;-62
2022/07/14 01:57:14;;;;;;;9.67;3.73;;;16.50;99.90;;;;;;4953932;29;20213;-62
2022/07/14 01:59:41;;;;;;;9.53;3.60;;;16.40;99.90;;;;;;4953790;29;20233;-62
2022/07/14 02:02:08;;;;;;;16.27;4.13;;;16.50;99.90;;;;;;4954075;29;20213;-62
2022/07/14 02:04:34;;;;;;;10.90;3.47;;;16.40;99.90;;;;;;4953526;29;20226;-62
2022/07/14 02:07:01;;;;;;;13.70;3.50;;;16.50;99.90;;;;;;4953493;29;20259;-62
2022/07/14 02:12:14;;;;;;;9.23;3.57;;;16.50;99.90;;;;;;4953923;29;20637;-62
2022/07/14 02:14:42;;;;;;;10.73;3.23;;;16.50;99.90;;;;;;4953904;29;20209;-62
2022/07/14 02:17:09;;;;;;;10.03;4.07;;;16.50;99.90;;;;;;4953655;29;20217;-62
2022/07/14 02:19:36;;;;;;;13.40;3.87;;;16.40;99.90;;;;;;4953769;29;20776;-62
2022/07/14 02:22:04;;;;;;;15.67;3.67;;;16.40;99.90;;;;;;4954122;29;20304;-62
2022/07/14 02:24:30;;;;;;;10.53;3.77;;;16.40;99.90;;;;;;4953641;29;20742;-62
2022/07/14 02:26:57;;;;;;;9.03;3.43;;;16.40;99.90;;;;;;4953291;28;20220;-62
2022/07/14 02:29:24;;;;;;;13.00;3.80;;;16.30;99.90;;;;;;4957494;29;20232;-62
2022/07/14 02:31:52;;;;;;;6.43;3.40;;;16.30;99.90;;;;;;4957414;29;20217;-62
2022/07/14 02:34:19;;;;;;;12.83;4.20;;;16.20;99.90;;;;;;4958011;29;20209;-62
2022/07/14 02:36:47;;;;;;;12.53;3.73;;;16.10;99.90;;;;;;4956843;29;20692;-62
2022/07/14 02:39:14;;;;;;;13.90;3.83;;;16.10;99.90;;;;;;4957578;29;20228;-62
2022/07/14 02:41:41;;;;;;;13.30;3.73;;;16.00;99.90;;;;;;4957296;29;20233;-62
2022/07/14 02:44:08;;;;;;;11.77;3.93;;;16.00;99.90;;;;;;4957048;28;20216;-62
2022/07/14 02:46:35;;;;;;;15.40;4.30;;;15.90;99.90;;;;;;4956746;29;20209;-62
2022/07/14 02:49:04;;;;;;;11.97;3.93;;;15.90;99.90;;;;;;4957147;29;20229;-62
2022/07/14 02:51:30;;;;;;;15.80;4.00;;;15.90;99.90;;;;;;4957280;29;20227;-62
2022/07/14 02:53:57;;;;;;;21.90;4.33;;;15.80;99.90;;;;;;4957216;29;20235;-62
2022/07/14 02:56:24;;;;;;;11.53;3.43;;;15.80;99.90;;;;;;4956694;29;20217;-62
2022/07/14 02:58:50;;;;;;;11.03;3.67;;;15.80;99.90;;;;;;4956809;29;20233;-63
2022/07/14 03:01:17;;;;;;;13.20;4.10;;;15.80;99.90;;;;;;4956749;29;20704;-63
2022/07/14 03:03:44;;;;;;;17.57;4.50;;;15.80;99.90;;;;;;4957344;29;20213;-62
2022/07/14 03:06:15;;;;;;;8.80;3.93;;;15.80;99.90;;;;;;4956393;29;20209;-62
2022/07/14 03:08:42;;;;;;;15.80;3.70;;;15.70;99.90;;;;;;4956977;28;20585;-62
2022/07/14 03:11:09;;;;;;;12.03;3.87;;;15.70;99.90;;;;;;4956888;29;20205;-62
2022/07/14 03:13:36;;;;;;;13.23;4.30;;;15.70;99.90;;;;;;4956737;29;20205;-62
2022/07/14 03:16:06;;;;;;;12.50;3.87;;;15.70;99.90;;;;;;4956570;29;20208;-62
2022/07/14 03:18:33;;;;;;;13.87;4.07;;;15.70;99.90;;;;;;4956896;29;20724;-62
2022/07/14 03:20:59;;;;;;;11.50;3.90;;;15.70;99.90;;;;;;4956617;29;20233;-62
2022/07/14 03:23:27;;;;;;;17.53;3.93;;;15.70;99.90;;;;;;4956628;29;20209;-62
2022/07/14 03:25:54;;;;;;;19.97;4.43;;;15.60;99.90;;;;;;4956232;29;20236;-62
2022/07/14 03:28:21;;;;;;;16.23;4.20;;;15.70;99.90;;;;;;4956278;29;20240;-62
2022/07/14 03:30:53;;;;;;;13.40;4.07;;;15.70;99.90;;;;;;4956440;28;20205;-62
2022/07/14 03:33:20;;;;;;;15.73;3.83;;;15.60;99.90;;;;;;4956251;29;20672;-62
2022/07/14 03:35:48;;;;;;;13.47;3.60;;;15.60;99.90;;;;;;4956053;29;20213;-62
2022/07/14 03:38:15;;;;;;;15.73;4.47;;;15.60;99.90;;;;;;4955311;28;20240;-62
2022/07/14 03:40:43;;;;;;;14.30;4.37;;;15.60;99.90;;;;;;4955939;29;20229;-62
2022/07/14 03:43:09;;;;;;;12.33;4.10;;;15.60;99.90;;;;;;4955748;29;20209;-62
2022/07/14 03:45:36;;;;;;;13.10;3.83;;;15.60;99.90;;;;;;4956212;29;20216;-62
2022/07/14 03:48:04;;;;;;;19.57;4.30;;;15.50;99.90;;;;;;4955938;29;20229;-62
2022/07/14 03:50:31;;;;;;;14.57;4.33;;;15.50;99.90;;;;;;4956135;29;20205;-62
2022/07/14 03:52:57;;;;;;;16.80;3.83;;;15.40;99.90;;;;;;4956297;29;20209;-62
2022/07/14 03:55:24;;;;;;;12.63;3.67;;;15.30;99.90;;;;;;4955715;29;20213;-62
2022/07/14 03:57:52;;;;;;;10.03;3.53;;;15.30;99.90;;;;;;4955820;28;20706;-63
2022/07/14 04:00:19;;;;;;;12.40;3.90;;;15.30;99.90;;;;;;4955876;29;20607;-62
2022/07/14 04:02:46;;;;;;;13.43;3.90;;;15.30;99.90;;;;;;4955900;29;20304;-62
2022/07/14 04:05:12;;;;;;;12.73;3.70;;;15.30;99.90;;;;;;4955499;29;20213;-62
2022/07/14 04:07:42;;;;;;;12.73;3.93;;;15.30;99.90;;;;;;4955045;29;20209;-62
2022/07/14 04:10:08;;;;;;;13.83;3.60;;;15.30;99.90;;;;;;4955855;29;20212;-62
2022/07/14 04:12:35;;;;;;;9.37;3.80;;;15.30;99.90;;;;;;4956081;29;20216;-62
2022/07/14 04:15:04;;;;;;;12.53;3.80;;;15.40;99.90;;;;;;4956528;29;20209;-62
2022/07/14 04:17:31;;;;;;;8.80;3.70;;;15.30;99.90;;;;;;4956536;29;20217;-62
2022/07/14 04:19:58;;;;;;;11.43;4.07;;;15.30;99.90;;;;;;4955595;29;20599;-62
2022/07/14 04:22:24;;;;;;;18.20;4.33;;;15.20;99.90;;;;;;4955322;29;20253;-63
2022/07/14 04:24:51;;;;;;;15.87;3.97;;;15.30;99.90;;;;;;4955613;29;20212;-63
2022/07/14 04:27:18;;;;;;;12.37;3.80;;;15.30;99.90;;;;;;4955050;29;20217;-63
2022/07/14 04:29:44;;;;;;;14.63;3.73;;;15.30;99.90;;;;;;4955137;29;20321;-63
2022/07/14 04:32:12;;;;;;;11.80;3.77;;;15.30;99.90;;;;;;4955435;29;20209;-63
2022/07/14 04:34:39;;;;;;;14.17;4.03;;;15.40;99.90;;;;;;4955058;29;20216;-63
2022/07/14 04:37:06;;;;;;;14.80;4.37;;;15.40;99.90;;;;;;4953212;29;20221;-62
2022/07/14 04:39:33;;;;;;;11.27;3.63;;;15.40;99.90;;;;;;4943859;29;20611;-62
2022/07/14 04:42:00;;;;;;;15.07;4.10;;;15.50;99.90;;;;;;4935704;29;20241;-63
2022/07/14 04:44:38;;;;;;;12.13;3.87;;;15.40;99.90;;;;;;4935725;29;20704;-62
2022/07/14 04:47:05;;;;;;;15.67;3.93;;;15.40;99.90;;;;;;4935408;29;20217;-63
2022/07/14 04:52:23;;;;;;;18.90;3.87;;;15.40;99.90;;;;;;4924757;29;20849;-63
2022/07/14 04:54:50;;;;;;;13.13;3.90;;;15.30;99.90;;;;;;4954753;29;20213;-63
2022/07/14 04:57:16;;;;;;;10.27;3.17;;;15.20;99.90;;;;;;4953875;29;20220;-64
2022/07/14 04:59:43;;;;;;;12.27;3.60;;;15.20;99.90;;;;;;4954814;29;20233;-64
2022/07/14 05:02:10;;;;;;;14.93;4.07;;;15.20;99.90;;;;;;4954505;29;20233;-64
2022/07/14 05:04:38;;;;;;;18.47;3.60;;;15.30;99.90;;;;;;4954733;29;20216;-64
2022/07/14 05:07:05;;;;;;;19.70;3.70;;;15.20;99.90;;;;;;4954487;29;20216;-64
2022/07/14 05:09:33;;;;;;;14.27;4.33;;;15.20;99.90;;;;;;4954188;29;20292;-64
2022/07/14 05:12:00;;;;;;;16.90;4.37;;;15.20;99.90;;;;;;4954721;29;20248;-64
2022/07/14 05:14:27;;;;;;;12.27;3.67;;;15.30;99.90;;;;;;4954031;29;20212;-64
2022/07/14 05:16:54;;;;;;;11.10;4.07;;;15.30;99.90;;;;;;4954056;29;20209;-63
2022/07/14 05:19:20;;;;;;;13.53;4.20;;;15.30;99.90;;;;;;4953837;29;20233;-64
2022/07/14 05:21:48;;;;;;;12.77;3.67;;;15.30;99.90;;;;;;4954292;29;20232;-63
2022/07/14 05:24:15;;;;;;;10.50;3.47;;;15.30;99.90;;;;;;4954408;29;20216;-63
2022/07/14 05:26:42;;;;;;;12.50;3.50;;;15.30;99.90;;;;;;4953588;29;20688;-64
2022/07/14 05:29:09;;;;;;;19.37;4.60;;;15.20;99.90;;;;;;4938459;29;20237;-67
2022/07/14 05:31:35;;;;;;;15.17;4.30;;;15.20;99.90;;;;;;4934878;29;20216;-66
2022/07/14 05:34:02;;;;;;;11.23;4.00;;;15.30;99.90;;;;;;4935215;29;20213;-66
2022/07/14 05:36:29;;;;;;;16.37;4.67;;;15.30;99.90;;;;;;4934048;29;20221;-67
2022/07/14 05:38:57;;;;;;;12.83;4.77;;;15.20;99.90;;;;;;4934795;29;20244;-66
2022/07/14 05:41:23;;;;;;;16.40;4.83;;;15.30;99.90;;;;;;4934690;29;20229;-66
2022/07/14 05:43:50;;;;;;;15.17;4.87;;;15.40;99.90;;;;;;4934444;29;20683;-66
2022/07/14 05:46:17;;;;;;;17.50;4.67;;;15.30;99.90;;;;;;4936782;29;20616;-68
2022/07/14 05:48:43;;;;;;;13.53;4.53;;;15.40;99.90;;;;;;4953311;29;20726;-63
2022/07/14 05:51:13;;;;;;;9.70;4.40;;;15.50;99.90;;;;;;4953898;29;20212;-63
2022/07/14 05:53:40;;;;;;;18.37;4.40;;;15.60;99.90;;;;;;4953386;29;20300;-63
2022/07/14 05:56:10;;;;;;;22.33;5.67;;;15.50;99.90;;;;;;4953314;29;20599;-62
2022/07/14 05:58:38;;;;;;;17.30;4.27;;;15.70;99.90;;;;;;4953813;29;20260;-62
2022/07/14 06:01:05;;;;;;;14.83;4.23;;;15.70;99.90;;;;;;4946187;29;20601;-62
2022/07/14 06:03:32;;;;;;;14.17;4.60;;;15.80;99.90;;;;;;4934560;29;20212;-62
2022/07/14 06:06:00;;;;;;;16.17;3.87;;;15.70;99.90;;;;;;4934030;29;20213;-62
2022/07/14 06:08:26;;;;;;;16.80;4.10;;;15.60;99.90;;;;;;4934263;29;20684;-61
2022/07/14 06:10:55;;;;;;;23.20;4.50;;;15.70;99.90;;;;;;4933884;29;20218;-62
2022/07/14 06:13:24;;;;;;;15.93;5.07;;;15.80;99.90;;;;;;4934622;29;20209;-61
2022/07/14 06:15:50;;;;;;;16.40;4.40;;;15.80;99.90;;;;;;4934327;29;20251;-64
2022/07/14 06:18:17;;;;;;;12.60;4.53;;;15.80;99.90;;;;;;4933917;29;20600;-64
2022/07/14 06:20:44;;;;;;;17.87;5.00;;;16.00;99.90;;;;;;4934237;29;20571;-61
2022/07/14 06:23:10;;;;;;;15.93;4.57;;;16.20;99.90;;;;;;4933763;29;20205;-61
2022/07/14 06:25:38;;;;;;;15.40;4.17;;;16.30;99.90;;;;;;4934385;29;20217;-61
2022/07/14 06:28:05;;;;;;;9.77;3.87;;;16.60;99.90;;;;;;4933417;29;20265;-61
2022/07/14 06:30:33;;;;;;;15.17;4.53;;;16.70;99.90;;;;;;4934777;29;20236;-64
2022/07/14 06:33:00;;;;;;;13.10;4.60;;;16.60;99.90;;;;;;4944195;29;20201;-63
2022/07/14 06:35:27;;;;;;;14.27;4.40;;;16.70;99.90;;;;;;4952374;29;20197;-64
2022/07/14 06:37:55;;;;;;;19.80;4.57;;;16.80;99.90;;;;;;4952903;29;20590;-63
2022/07/14 06:40:23;;;;;;;15.40;4.30;;;16.90;99.90;;;;;;4952647;29;20212;-63
2022/07/14 06:42:50;;;;;;;10.17;3.90;;;16.90;99.90;;;;;;4952978;29;20236;-64
2022/07/14 06:45:16;;;;;;;16.10;3.97;;;16.90;99.90;;;;;;4952382;29;20676;-63
2022/07/14 06:47:44;;;;;;;12.80;3.30;;;16.90;99.90;;;;;;4952802;29;20205;-64
2022/07/14 06:50:11;;;;;;;11.60;3.57;;;17.00;99.90;;;;;;4952881;29;20205;-63
2022/07/14 06:52:38;;;;;;;17.53;3.90;;;17.20;99.90;;;;;;4941210;29;20297;-65
2022/07/14 06:55:06;;;;;;;17.87;4.20;;;17.20;99.90;;;;;;4933885;29;20256;-63
2022/07/14 06:57:33;;;;;;;16.17;4.23;;;17.20;99.90;;;;;;4932916;29;20223;-63
2022/07/14 06:59:59;;;;;;;13.40;3.47;;;17.40;99.90;;;;;;4933421;29;20609;-63
2022/07/14 07:02:26;;;;;;;12.53;3.73;;;17.60;99.90;;;;;;4933585;29;20233;-63
2022/07/14 07:07:36;;;;;;;8.97;3.67;;;17.50;99.90;;;;;;4936330;29;20213;-63
2022/07/14 07:10:03;;;;;;;10.90;4.20;;;17.40;99.90;;;;;;4952603;29;20233;-63
2022/07/14 07:12:30;;;;;;;14.60;6.00;;;17.40;99.90;;;;;;4953078;28;20236;-63
2022/07/14 07:14:57;;;;;;;16.50;4.57;;;17.40;99.90;;;;;;4954967;29;20213;-63
2022/07/14 07:17:23;;;;;;;14.87;4.43;;;17.40;99.90;;;;;;4955704;29;20220;-63
2022/07/14 07:19:50;;;;;;;15.93;4.60;;;17.50;99.90;;;;;;4956560;29;20229;-63
2022/07/14 07:22:18;;;;;;;10.40;4.27;;;17.60;99.90;;;;;;4955938;29;20225;-64
2022/07/14 07:24:45;;;;;;;15.10;3.87;;;17.50;99.90;;;;;;4955734;29;20232;-62
2022/07/14 07:27:12;;;;;;;11.10;3.40;;;17.30;99.90;;;;;;4955401;29;20703;-61
2022/07/14 07:29:38;;;;;;;13.37;3.80;;;17.50;99.90;;;;;;4956169;29;20632;-61
2022/07/14 07:32:07;;;;;;;11.23;3.70;;;17.60;99.90;;;;;;4955914;29;20703;-61
2022/07/14 07:34:36;;;;;;;15.77;4.50;;;17.40;99.90;;;;;;4955838;29;20644;-62
2022/07/14 07:37:03;;;;;;;14.77;4.40;;;17.40;99.90;;;;;;4955524;29;20205;-62
2022/07/14 07:39:33;;;;;;;16.30;4.50;;;17.50;99.90;;;;;;4955534;29;20233;-61
2022/07/14 07:42:01;;;;;;;17.77;5.03;;;17.40;99.90;;;;;;4955891;29;20276;-62
2022/07/14 07:44:28;;;;;;;14.33;4.67;;;17.50;99.90;;;;;;4955092;29;20714;-62
2022/07/14 07:46:55;;;;;;;17.10;4.53;;;17.50;99.90;;;;;;4954374;29;20241;-62
2022/07/14 07:49:22;;;;;;;12.70;4.03;;;17.50;99.90;;;;;;4937556;29;20241;-62
2022/07/14 07:51:48;;;;;;;16.10;4.20;;;17.50;94.00;;;;;;4942669;29;20217;-61
2022/07/14 07:54:18;;;;;;;12.13;4.57;;;17.40;99.90;;;;;;4955969;29;20291;-61
2022/07/14 07:56:46;;;;;;;65.23;35.33;;;17.50;99.90;;;;;;4955619;29;20219;-62
2022/07/14 07:59:15;;;;;;;12.97;4.10;;;17.80;63.00;;;;;;4955001;29;20252;-61
2022/07/14 08:01:41;;;;;;;14.63;4.57;;;18.20;25.50;;;;;;4955512;29;20225;-61
2022/07/14 08:04:08;;;;;;;17.77;4.50;;;18.40;1.00;;;;;;4955382;29;20204;-62
2022/07/14 08:06:35;;;;;;;13.83;4.27;;;18.50;1.00;;;;;;4955377;29;20212;-63
2022/07/14 08:09:03;;;;;;;17.17;4.93;;;18.40;99.90;;;;;;4939140;29;20368;-64
2022/07/14 08:11:30;;;;;;;10.20;4.40;;;18.60;99.90;;;;;;4935989;29;20206;-64
2022/07/14 08:13:58;;;;;;;13.37;4.80;;;18.80;95.50;;;;;;4935696;29;20269;-61
2022/07/14 08:16:25;;;;;;;15.20;4.53;;;18.70;99.90;;;;;;4935753;29;20212;-62
2022/07/14 08:18:52;;;;;;;17.97;4.37;;;18.50;1.00;;;;;;4935790;29;20716;-62
2022/07/14 08:21:19;;;;;;;11.13;3.40;;;18.60;99.90;;;;;;4935352;29;20210;-64
2022/07/14 08:23:46;;;;;;;13.27;3.63;;;18.90;1.00;;;;;;4936307;29;20220;-64
2022/07/14 08:26:12;;;;;;;9.70;3.17;;;19.30;99.90;;;;;;4933694;29;20224;-65
2022/07/14 08:28:39;;;;;;;15.83;3.60;;;19.60;1.00;;;;;;4935541;29;20233;-64
2022/07/14 08:31:07;;;;;;;14.57;3.07;;;19.80;1.00;;;;;;4935839;29;20224;-64
2022/07/14 08:33:34;;;;;;;12.00;3.63;;;20.10;1.00;;;;;;4935235;29;20676;-64
2022/07/14 08:36:01;;;;;;;9.73;2.73;;;19.50;99.90;;;;;;4935530;29;20219;-62
2022/07/14 08:38:27;;;;;;;11.43;3.37;;;19.50;1.00;;;;;;4935177;29;20242;-64
2022/07/14 08:40:54;;;;;;;12.80;3.20;;;19.70;1.00;;;;;;4935336;29;20217;-62
2022/07/14 08:43:21;;;;;;;6.70;2.70;;;20.00;1.00;;;;;;4935206;29;20252;-62
2022/07/14 08:45:50;;;;;;;10.83;2.33;;;20.30;99.90;;;;;;4935221;29;20691;-63
2022/07/14 08:48:19;;;;;;;7.80;2.23;;;20.40;99.90;;;;;;4935220;29;20229;-66
2022/07/14 08:50:47;;;;;;;8.43;2.47;;;20.40;99.90;;;;;;4934779;29;20689;-65
2022/07/14 08:53:14;;;;;;;12.30;2.70;;;20.60;99.90;;;;;;4935027;29;20210;-65
2022/07/14 08:55:41;;;;;;;9.30;2.33;;;20.70;99.90;;;;;;4934995;29;20630;-66
2022/07/14 08:58:08;;;;;;;11.87;2.90;;;20.30;99.90;;;;;;4934898;29;20233;-65
2022/07/14 09:00:34;;;;;;;11.53;3.10;;;20.00;99.90;;;;;;4935177;29;20673;-65
2022/07/14 09:03:01;;;;;;;7.17;2.60;;;20.20;99.90;;;;;;4934562;29;20596;-63
2022/07/14 09:05:29;;;;;;;11.23;2.70;;;20.30;99.90;;;;;;4934869;29;20217;-64
2022/07/14 09:07:57;;;;;;;11.67;2.63;;;20.40;99.90;;;;;;4934025;29;20217;-63
2022/07/14 09:10:27;;;;;;;8.23;2.70;;;20.60;99.90;;;;;;4935223;29;20210;-64
2022/07/14 09:13:10;;;;;;;7.07;2.10;;;20.70;99.90;;;;;;4934677;29;20205;-64
2022/07/14 09:15:45;;;;;;;9.70;1.73;;;20.90;99.90;;;;;;4934827;29;20301;-64
2022/07/14 09:18:20;;;;;;;7.50;1.90;;;21.00;99.90;;;;;;4934309;29;20230;-66
2022/07/14 09:20:48;;;;;;;5.60;1.40;;;21.00;99.90;;;;;;4934631;29;20217;-64
2022/07/14 09:23:15;;;;;;;3.17;1.10;;;20.80;99.90;;;;;;4934656;29;20225;-64
2022/07/14 09:25:42;;;;;;;3.73;1.03;;;20.80;99.90;;;;;;4934476;29;20205;-63
2022/07/14 09:28:08;;;;;;;4.10;1.53;;;20.80;99.90;;;;;;4934547;29;20238;-65
2022/07/14 09:30:35;;;;;;;6.40;1.67;;;20.70;99.90;;;;;;4934335;29;20221;-66
2022/07/14 09:33:04;;;;;;;3.47;1.23;;;20.80;99.90;;;;;;4934726;29;20225;-66
2022/07/14 09:35:41;;;;;;;4.90;1.30;;;20.60;99.90;;;;;;4934136;29;20221;-65
2022/07/14 09:38:18;;;;;;;8.43;1.77;;;20.90;99.90;;;;;;4933966;29;20280;-64
2022/07/14 09:40:46;;;;;;;7.53;1.80;;;21.20;99.90;;;;;;4934465;29;20237;-65
2022/07/14 09:43:13;;;;;;;7.97;1.53;;;21.30;99.90;;;;;;4933376;29;20226;-63
2022/07/14 09:45:42;;;;;;;3.93;1.30;;;21.30;99.90;;;;;;4934548;29;20213;-63
2022/07/14 09:48:11;;;;;;;4.93;1.33;;;21.20;99.90;;;;;;4933898;29;20229;-64
2022/07/14 09:50:47;;;;;;;3.47;1.17;;;21.20;99.90;;;;;;4934264;29;20241;-61
2022/07/14 09:53:22;;;;;;;3.13;0.80;;;21.40;99.90;;;;;;4934329;29;20300;-60
2022/07/14 09:55:56;;;;;;;4.83;1.00;;;21.60;99.90;;;;;;4933991;29;20213;-60
2022/07/14 09:58:24;;;;;;;4.40;0.87;;;21.70;99.90;;;;;;4934484;29;20229;-62
2022/07/14 10:01:00;;;;;;;4.17;1.37;;;21.90;99.90;;;;;;4933587;29;20704;-66
2022/07/14 10:03:29;;;;;;;3.80;0.80;;;21.90;99.90;;;;;;4934204;29;20217;-64
2022/07/14 10:05:57;;;;;;;4.60;1.10;;;22.00;99.90;;;;;;4933514;29;20677;-65
2022/07/14 10:08:27;;;;;;;3.57;0.80;;;21.90;99.90;;;;;;4933913;29;20230;-66
2022/07/14 10:10:56;;;;;;;3.20;0.90;;;21.70;99.90;;;;;;4934146;29;20259;-65
2022/07/14 10:13:24;;;;;;;4.47;1.33;;;21.60;99.90;;;;;;4933588;29;20209;-64
2022/07/14 10:15:52;;;;;;;8.00;1.60;;;21.50;99.90;;;;;;4933883;29;20571;-64
2022/07/14 10:18:20;;;;;;;4.97;1.00;;;21.50;99.90;;;;;;4933969;29;20238;-68
2022/07/14 10:20:49;;;;;;;3.37;1.10;;;21.60;99.90;;;;;;4933636;29;20214;-61
2022/07/14 10:23:17;;;;;;;3.60;1.07;;;21.80;99.90;;;;;;4934058;29;20230;-64
2022/07/14 10:25:46;;;;;;;3.23;1.07;;;21.60;99.90;;;;;;4934129;29;20209;-63
2022/07/14 10:28:14;;;;;;;3.70;1.40;;;21.60;99.90;;;;;;4952658;29;20248;-66
2022/07/14 10:30:49;;;;;;;4.23;0.97;;;21.60;99.90;;;;;;4952497;29;20216;-67
2022/07/14 10:33:21;;;;;;;4.23;1.30;;;21.60;99.90;;;;;;4952524;29;20212;-66
2022/07/14 10:35:55;;;;;;;7.40;1.27;;;22.00;99.90;;;;;;4952696;29;20236;-63
2022/07/14 10:39:03;;;;;;;3.97;1.10;;;22.00;99.90;;;;;;4952751;29;20611;-65
2022/07/14 10:41:56;;;;;;;2.83;0.80;;;22.10;99.90;;;;;;4953478;29;20213;-65
2022/07/14 10:44:25;;;;;;;7.17;0.70;;;22.10;99.90;;;;;;4953087;29;20212;-67
2022/07/14 10:47:06;;;;;;;3.53;1.00;;;22.10;99.90;;;;;;4952478;29;20205;-63
2022/07/14 10:50:08;;;;;;;1.70;0.97;;;22.20;99.90;;;;;;4955170;28;20232;-64
2022/07/14 10:52:37;;;;;;;6.67;1.57;;;22.40;99.90;;;;;;4956638;28;20208;-63
2022/07/14 10:55:15;;;;;;;3.10;1.03;;;22.40;99.90;;;;;;4955903;29;20217;-64
2022/07/14 10:58:15;;;;;;;3.93;1.07;;;22.40;99.90;;;;;;4956089;29;20208;-63
2022/07/14 11:00:57;;;;;;;2.80;1.00;;;22.40;99.90;;;;;;4955940;29;20217;-65
2022/07/14 11:03:26;;;;;;;2.43;0.87;;;22.50;99.90;;;;;;4956483;29;20229;-66
2022/07/14 11:06:13;;;;;;;2.60;1.10;;;22.40;99.90;;;;;;4955991;28;20205;-64
2022/07/14 11:08:41;;;;;;;3.90;1.13;;;22.30;99.90;;;;;;4956010;29;20600;-65
2022/07/14 11:11:17;;;;;;;3.37;0.73;;;22.50;99.90;;;;;;4956315;29;20215;-65
2022/07/14 11:14:07;;;;;;;3.73;1.10;;;22.50;99.90;;;;;;4956079;29;20208;-65
2022/07/14 11:16:57;;;;;;;3.57;1.13;;;22.70;99.90;;;;;;4942610;28;20214;-65
2022/07/14 11:19:26;;;;;;;2.97;1.10;;;22.80;99.90;;;;;;4937149;29;20237;-63
2022/07/14 11:22:17;;;;;;;4.23;0.90;;;22.90;99.90;;;;;;4936917;29;20304;-63
2022/07/14 11:24:53;;;;;;;3.77;1.00;;;22.90;99.90;;;;;;4936320;29;20261;-63
2022/07/14 11:27:37;;;;;;;5.30;1.00;;;22.90;99.90;;;;;;4938110;29;20221;-63
2022/07/14 11:30:25;;;;;;;3.83;1.27;;;22.90;99.90;;;;;;4940318;29;20233;-63
2022/07/14 11:33:05;;;;;;;3.37;1.13;;;22.60;99.90;;;;;;4937788;29;20231;-63
2022/07/14 11:38:37;;;;;;;3.70;0.93;;;23.10;99.90;;;;;;4936124;29;20272;-61
2022/07/14 11:41:08;;;;;;;5.40;1.33;;;23.00;99.90;;;;;;4936297;29;20218;-62
2022/07/14 11:43:53;;;;;;;5.17;1.30;;;23.10;99.90;;;;;;4935835;29;20244;-63
2022/07/14 11:46:21;;;;;;;5.37;0.97;;;23.30;99.90;;;;;;4936123;29;20575;-63
2022/07/14 11:48:51;;;;;;;4.77;1.50;;;23.40;99.90;;;;;;4936147;29;20234;-63
2022/07/14 11:51:24;;;;;;;3.90;1.13;;;23.10;99.90;;;;;;4936409;29;20241;-66
2022/07/14 11:53:59;;;;;;;3.43;1.13;;;23.30;99.90;;;;;;4935906;29;20232;-64
2022/07/14 11:56:27;;;;;;;5.60;1.10;;;22.50;99.90;;;;;;4936244;29;20206;-64
2022/07/14 11:58:58;;;;;;;4.23;1.20;;;22.80;99.90;;;;;;4935585;29;20628;-66
2022/07/14 12:01:31;;;;;;;3.93;1.03;;;23.20;99.90;;;;;;4936638;29;20300;-65
2022/07/14 12:04:08;;;;;;;3.93;1.30;;;23.30;99.90;;;;;;4935934;29;20234;-66
2022/07/14 12:06:37;;;;;;;4.30;1.10;;;23.50;99.90;;;;;;4935682;29;20212;-63
2022/07/14 12:09:03;;;;;;;2.80;0.93;;;23.40;99.90;;;;;;4935727;29;20233;-62
2022/07/14 12:11:30;;;;;;;3.30;1.30;;;23.20;99.90;;;;;;4935851;29;20217;-63
2022/07/14 12:13:57;;;;;;;2.47;1.03;;;23.40;99.90;;;;;;4935980;29;20202;-64
2022/07/14 12:16:24;;;;;;;3.50;1.50;;;23.50;99.90;;;;;;4935467;29;20213;-66
2022/07/14 12:18:52;;;;;;;2.23;0.90;;;23.50;99.90;;;;;;4935686;29;20237;-66
2022/07/14 12:21:32;;;;;;;4.60;1.33;;;23.10;99.90;;;;;;4935835;29;20629;-65
2022/07/14 12:23:59;;;;;;;2.80;1.10;;;22.90;99.90;;;;;;4935378;29;20233;-63
2022/07/14 12:26:27;;;;;;;3.10;1.00;;;23.20;99.90;;;;;;4935515;29;20724;-65
2022/07/14 12:28:56;;;;;;;3.70;1.40;;;23.40;99.90;;;;;;4935603;29;20229;-65
2022/07/14 12:31:23;;;;;;;2.03;1.10;;;23.30;99.90;;;;;;4935847;29;20607;-63
2022/07/14 12:33:52;;;;;;;2.47;1.10;;;23.40;99.90;;;;;;4935580;29;20244;-64
2022/07/14 12:36:23;;;;;;;7.50;1.43;;;23.00;99.90;;;;;;4934602;29;20218;-63
2022/07/14 12:38:51;;;;;;;3.90;1.17;;;23.20;99.90;;;;;;4935766;29;20316;-65
2022/07/14 12:41:24;;;;;;;2.87;1.20;;;23.20;99.90;;;;;;4935345;29;20209;-63
2022/07/14 12:43:51;;;;;;;2.83;1.17;;;23.40;99.90;;;;;;4935373;29;20304;-64
2022/07/14 12:46:19;;;;;;;3.43;1.20;;;23.40;99.90;;;;;;4934678;29;20216;-65
2022/07/14 12:49:01;;;;;;;5.67;1.30;;;23.70;99.90;;;;;;4935766;29;20233;-65
2022/07/14 12:51:34;;;;;;;5.37;1.40;;;23.50;99.90;;;;;;4936519;29;20300;-65
2022/07/14 12:54:05;;;;;;;3.50;1.03;;;23.50;99.90;;;;;;4934878;29;20210;-65
2022/07/14 12:56:34;;;;;;;4.37;1.10;;;23.50;99.90;;;;;;4935088;29;20218;-65
2022/07/14 12:59:02;;;;;;;2.67;1.20;;;23.50;99.90;;;;;;4934500;29;20270;-64
2022/07/14 13:01:29;;;;;;;2.93;1.10;;;23.40;99.90;;;;;;4935348;29;20202;-64